sensor_id;sensor_type;location;lat;lon;timestamp;temperature;humidity
40323;DHT22;26030;51.164;17.100;2023-11-21T00:01:49;23.70;63.70
40323;DHT22;26030;51.164;17.100;2023-11-21T00:06:54;23.70;63.70
40323;DHT22;26030;51.164;17.100;2023-11-21T00:11:58;23.70;63.50
40323;DHT22;26030;51.164;17.100;2023-11-21T00:17:06;23.60;63.70
40323;DHT22;26030;51.164;17.100;2023-11-21T00:22:10;23.50;64.30
40323;DHT22;26030;51.164;17.100;2023-11-21T00:27:14;23.50;63.70
40323;DHT22;26030;51.164;17.100;2023-11-21T00:32:19;23.50;63.70
40323;DHT22;26030;51.164;17.100;2023-11-21T00:37:23;23.60;63.30
40323;DHT22;26030;51.164;17.100;2023-11-21T00:42:28;23.70;62.80
40323;DHT22;26030;51.164;17.100;2023-11-21T00:47:33;23.60;62.90
40323;DHT22;26030;51.164;17.100;2023-11-21T00:52:37;23.50;63.20
40323;DHT22;26030;51.164;17.100;2023-11-21T00:57:42;23.40;63.20
40323;DHT22;26030;51.164;17.100;2023-11-21T01:02:46;23.40;63.10
40323;DHT22;26030;51.164;17.100;2023-11-21T01:07:52;23.30;63.20
40323;DHT22;26030;51.164;17.100;2023-11-21T01:12:56;23.30;63.40
40323;DHT22;26030;51.164;17.100;2023-11-21T01:18:01;23.40;63.70
40323;DHT22;26030;51.164;17.100;2023-11-21T01:23:07;23.50;63.20
40323;DHT22;26030;51.164;17.100;2023-11-21T01:28:12;23.60;62.90
40323;DHT22;26030;51.164;17.100;2023-11-21T01:33:16;23.60;62.70
40323;DHT22;26030;51.164;17.100;2023-11-21T01:38:21;23.70;62.50
40323;DHT22;26030;51.164;17.100;2023-11-21T01:43:26;23.80;62.30
40323;DHT22;26030;51.164;17.100;2023-11-21T01:48:30;23.80;62.40
40323;DHT22;26030;51.164;17.100;2023-11-21T01:53:35;23.80;62.00
40323;DHT22;26030;51.164;17.100;2023-11-21T01:58:40;23.90;61.70
40323;DHT22;26030;51.164;17.100;2023-11-21T02:03:47;23.80;62.00
40323;DHT22;26030;51.164;17.100;2023-11-21T02:08:51;23.70;61.70
40323;DHT22;26030;51.164;17.100;2023-11-21T02:13:58;23.70;61.80
40323;DHT22;26030;51.164;17.100;2023-11-21T02:19:04;23.60;61.70
40323;DHT22;26030;51.164;17.100;2023-11-21T02:24:12;23.50;62.60
40323;DHT22;26030;51.164;17.100;2023-11-21T02:29:17;23.40;62.20
40323;DHT22;26030;51.164;17.100;2023-11-21T02:34:32;23.30;63.00
40323;DHT22;26030;51.164;17.100;2023-11-21T02:39:37;23.30;63.30
40323;DHT22;26030;51.164;17.100;2023-11-21T02:44:41;23.40;62.70
40323;DHT22;26030;51.164;17.100;2023-11-21T02:49:46;23.50;62.80
40323;DHT22;26030;51.164;17.100;2023-11-21T02:54:50;23.70;62.00
40323;DHT22;26030;51.164;17.100;2023-11-21T02:59:55;23.80;61.70
40323;DHT22;26030;51.164;17.100;2023-11-21T03:05:00;23.80;61.50
40323;DHT22;26030;51.164;17.100;2023-11-21T03:10:04;23.90;61.40
40323;DHT22;26030;51.164;17.100;2023-11-21T03:15:10;23.90;61.30
40323;DHT22;26030;51.164;17.100;2023-11-21T03:20:14;23.80;61.70
40323;DHT22;26030;51.164;17.100;2023-11-21T03:25:20;23.80;61.50
40323;DHT22;26030;51.164;17.100;2023-11-21T03:30:24;23.80;61.50
40323;DHT22;26030;51.164;17.100;2023-11-21T03:35:28;23.80;62.00
40323;DHT22;26030;51.164;17.100;2023-11-21T03:40:33;23.70;61.80
40323;DHT22;26030;51.164;17.100;2023-11-21T03:45:37;23.70;62.00
40323;DHT22;26030;51.164;17.100;2023-11-21T03:50:44;23.60;61.60
40323;DHT22;26030;51.164;17.100;2023-11-21T03:55:48;23.60;61.80
40323;DHT22;26030;51.164;17.100;2023-11-21T04:00:54;23.60;62.10
40323;DHT22;26030;51.164;17.100;2023-11-21T04:05:58;23.40;61.80
40323;DHT22;26030;51.164;17.100;2023-11-21T04:11:02;23.30;62.10
40323;DHT22;26030;51.164;17.100;2023-11-21T04:16:08;23.50;62.10
40323;DHT22;26030;51.164;17.100;2023-11-21T04:21:12;23.60;61.60
40323;DHT22;26030;51.164;17.100;2023-11-21T04:26:17;23.70;61.20
40323;DHT22;26030;51.164;17.100;2023-11-21T04:31:21;23.80;61.00
40323;DHT22;26030;51.164;17.100;2023-11-21T04:36:25;23.90;61.20
40323;DHT22;26030;51.164;17.100;2023-11-21T04:41:30;23.90;60.80
40323;DHT22;26030;51.164;17.100;2023-11-21T04:46:35;23.90;60.80
40323;DHT22;26030;51.164;17.100;2023-11-21T04:51:40;23.90;60.90
40323;DHT22;26030;51.164;17.100;2023-11-21T04:56:44;23.80;60.70
40323;DHT22;26030;51.164;17.100;2023-11-21T05:01:48;23.80;60.70
40323;DHT22;26030;51.164;17.100;2023-11-21T05:06:53;23.70;60.60
40323;DHT22;26030;51.164;17.100;2023-11-21T05:12:00;23.70;60.70
40323;DHT22;26030;51.164;17.100;2023-11-21T05:17:05;23.60;60.90
40323;DHT22;26030;51.164;17.100;2023-11-21T05:22:10;23.60;61.50
40323;DHT22;26030;51.164;17.100;2023-11-21T05:27:15;23.50;61.50
40323;DHT22;26030;51.164;17.100;2023-11-21T05:32:19;23.40;62.00
40323;DHT22;26030;51.164;17.100;2023-11-21T05:37:24;23.40;61.50
40323;DHT22;26030;51.164;17.100;2023-11-21T05:42:30;23.30;62.10
40323;DHT22;26030;51.164;17.100;2023-11-21T05:47:38;23.30;62.20
40323;DHT22;26030;51.164;17.100;2023-11-21T05:52:50;23.20;61.80
40323;DHT22;26030;51.164;17.100;2023-11-21T05:57:54;23.20;61.70
40323;DHT22;26030;51.164;17.100;2023-11-21T06:02:59;23.20;61.70
40323;DHT22;26030;51.164;17.100;2023-11-21T06:08:03;23.10;61.90
40323;DHT22;26030;51.164;17.100;2023-11-21T06:13:08;23.10;61.80
40323;DHT22;26030;51.164;17.100;2023-11-21T06:18:12;23.00;62.00
40323;DHT22;26030;51.164;17.100;2023-11-21T06:23:18;23.00;62.10
40323;DHT22;26030;51.164;17.100;2023-11-21T06:28:22;22.90;62.30
40323;DHT22;26030;51.164;17.100;2023-11-21T06:33:26;22.90;62.50
40323;DHT22;26030;51.164;17.100;2023-11-21T06:38:31;22.90;62.50
40323;DHT22;26030;51.164;17.100;2023-11-21T06:43:36;23.10;62.80
40323;DHT22;26030;51.164;17.100;2023-11-21T06:48:43;23.40;62.60
40323;DHT22;26030;51.164;17.100;2023-11-21T06:53:48;23.60;62.20
40323;DHT22;26030;51.164;17.100;2023-11-21T06:58:53;23.70;61.50
40323;DHT22;26030;51.164;17.100;2023-11-21T07:03:57;23.80;61.40
40323;DHT22;26030;51.164;17.100;2023-11-21T07:09:02;23.80;61.50
40323;DHT22;26030;51.164;17.100;2023-11-21T07:14:07;23.80;61.70
40323;DHT22;26030;51.164;17.100;2023-11-21T07:19:12;23.70;61.80
40323;DHT22;26030;51.164;17.100;2023-11-21T07:24:17;23.60;62.00
40323;DHT22;26030;51.164;17.100;2023-11-21T07:29:23;23.70;61.90
40323;DHT22;26030;51.164;17.100;2023-11-21T07:34:29;23.70;61.90
40323;DHT22;26030;51.164;17.100;2023-11-21T07:39:33;23.70;61.40
40323;DHT22;26030;51.164;17.100;2023-11-21T07:44:37;23.60;62.50
40323;DHT22;26030;51.164;17.100;2023-11-21T07:49:41;23.60;62.90
40323;DHT22;26030;51.164;17.100;2023-11-21T07:54:47;23.60;62.30
40323;DHT22;26030;51.164;17.100;2023-11-21T07:59:51;23.40;61.90
40323;DHT22;26030;51.164;17.100;2023-11-21T08:04:57;23.40;62.30
40323;DHT22;26030;51.164;17.100;2023-11-21T08:10:03;23.30;61.80
40323;DHT22;26030;51.164;17.100;2023-11-21T08:15:08;23.20;62.10
40323;DHT22;26030;51.164;17.100;2023-11-21T08:20:14;23.10;62.30
40323;DHT22;26030;51.164;17.100;2023-11-21T08:25:22;23.10;61.80
40323;DHT22;26030;51.164;17.100;2023-11-21T08:30:26;23.10;61.90
40323;DHT22;26030;51.164;17.100;2023-11-21T08:35:34;23.10;61.80
40323;DHT22;26030;51.164;17.100;2023-11-21T08:40:42;23.10;61.90
40323;DHT22;26030;51.164;17.100;2023-11-21T08:45:47;22.90;62.30
40323;DHT22;26030;51.164;17.100;2023-11-21T08:50:51;22.90;62.20
40323;DHT22;26030;51.164;17.100;2023-11-21T08:55:55;23.10;62.10
40323;DHT22;26030;51.164;17.100;2023-11-21T09:01:00;23.30;61.30
40323;DHT22;26030;51.164;17.100;2023-11-21T09:06:08;23.60;61.70
40323;DHT22;26030;51.164;17.100;2023-11-21T09:11:13;23.90;61.80
40323;DHT22;26030;51.164;17.100;2023-11-21T09:16:17;23.80;62.10
40323;DHT22;26030;51.164;17.100;2023-11-21T09:21:22;23.70;61.90
40323;DHT22;26030;51.164;17.100;2023-11-21T09:26:28;23.60;62.30
40323;DHT22;26030;51.164;17.100;2023-11-21T09:31:33;23.60;61.90
40323;DHT22;26030;51.164;17.100;2023-11-21T09:36:39;23.50;61.90
40323;DHT22;26030;51.164;17.100;2023-11-21T09:41:52;23.60;61.20
40323;DHT22;26030;51.164;17.100;2023-11-21T09:47:02;23.60;61.50
40323;DHT22;26030;51.164;17.100;2023-11-21T09:52:07;23.50;61.50
40323;DHT22;26030;51.164;17.100;2023-11-21T09:57:23;23.50;61.50
40323;DHT22;26030;51.164;17.100;2023-11-21T10:02:28;23.40;61.40
40323;DHT22;26030;51.164;17.100;2023-11-21T10:07:34;23.30;61.50
40323;DHT22;26030;51.164;17.100;2023-11-21T10:12:39;23.30;61.70
40323;DHT22;26030;51.164;17.100;2023-11-21T10:17:46;23.30;61.40
40323;DHT22;26030;51.164;17.100;2023-11-21T10:22:56;23.30;61.90
40323;DHT22;26030;51.164;17.100;2023-11-21T10:28:01;23.30;61.40
40323;DHT22;26030;51.164;17.100;2023-11-21T10:33:10;23.30;61.30
40323;DHT22;26030;51.164;17.100;2023-11-21T10:38:17;23.20;61.30
40323;DHT22;26030;51.164;17.100;2023-11-21T10:43:26;23.10;61.40
40323;DHT22;26030;51.164;17.100;2023-11-21T10:48:31;23.10;61.30
40323;DHT22;26030;51.164;17.100;2023-11-21T10:53:39;23.00;61.30
40323;DHT22;26030;51.164;17.100;2023-11-21T10:58:49;23.10;60.90
40323;DHT22;26030;51.164;17.100;2023-11-21T11:03:56;23.20;60.70
40323;DHT22;26030;51.164;17.100;2023-11-21T11:09:01;23.50;59.90
40323;DHT22;26030;51.164;17.100;2023-11-21T11:14:08;23.60;59.60
40323;DHT22;26030;51.164;17.100;2023-11-21T11:19:15;23.70;59.30
40323;DHT22;26030;51.164;17.100;2023-11-21T11:40:41;23.40;59.50
40323;DHT22;26030;51.164;17.100;2023-11-21T11:45:50;23.40;59.60
40323;DHT22;26030;51.164;17.100;2023-11-21T11:51:02;23.30;59.90
40323;DHT22;26030;51.164;17.100;2023-11-21T12:01:38;23.10;59.70
40323;DHT22;26030;51.164;17.100;2023-11-21T12:06:52;23.10;59.60
40323;DHT22;26030;51.164;17.100;2023-11-21T12:12:00;23.10;59.50
40323;DHT22;26030;51.164;17.100;2023-11-21T12:17:05;23.10;59.50
40323;DHT22;26030;51.164;17.100;2023-11-21T12:22:10;23.10;59.60
40323;DHT22;26030;51.164;17.100;2023-11-21T12:27:15;23.00;59.80
40323;DHT22;26030;51.164;17.100;2023-11-21T12:32:20;23.00;59.50
40323;DHT22;26030;51.164;17.100;2023-11-21T12:37:25;22.90;59.60
40323;DHT22;26030;51.164;17.100;2023-11-21T12:42:29;23.00;59.50
40323;DHT22;26030;51.164;17.100;2023-11-21T12:47:35;23.20;58.60
40323;DHT22;26030;51.164;17.100;2023-11-21T12:52:40;23.40;58.30
40323;DHT22;26030;51.164;17.100;2023-11-21T12:57:54;23.60;57.60
40323;DHT22;26030;51.164;17.100;2023-11-21T13:02:59;23.60;57.20
40323;DHT22;26030;51.164;17.100;2023-11-21T13:08:07;23.70;57.10
40323;DHT22;26030;51.164;17.100;2023-11-21T13:13:13;23.60;57.40
40323;DHT22;26030;51.164;17.100;2023-11-21T13:18:27;23.50;57.80
40323;DHT22;26030;51.164;17.100;2023-11-21T13:23:34;23.40;57.20
40323;DHT22;26030;51.164;17.100;2023-11-21T13:28:40;23.50;57.20
40323;DHT22;26030;51.164;17.100;2023-11-21T13:33:51;23.30;57.50
40323;DHT22;26030;51.164;17.100;2023-11-21T13:39:02;23.30;57.90
40323;DHT22;26030;51.164;17.100;2023-11-21T13:44:19;23.30;57.80
40323;DHT22;26030;51.164;17.100;2023-11-21T13:49:38;23.30;58.20
40323;DHT22;26030;51.164;17.100;2023-11-21T13:54:45;23.20;58.50
40323;DHT22;26030;51.164;17.100;2023-11-21T13:59:49;23.20;58.60
40323;DHT22;26030;51.164;17.100;2023-11-21T14:04:55;23.10;58.70
40323;DHT22;26030;51.164;17.100;2023-11-21T14:10:03;23.10;58.60
40323;DHT22;26030;51.164;17.100;2023-11-21T14:15:11;23.10;58.60
40323;DHT22;26030;51.164;17.100;2023-11-21T14:20:20;23.00;59.30
40323;DHT22;26030;51.164;17.100;2023-11-21T14:25:26;23.00;58.80
40323;DHT22;26030;51.164;17.100;2023-11-21T14:30:30;23.00;58.80
40323;DHT22;26030;51.164;17.100;2023-11-21T14:35:39;23.10;59.00
40323;DHT22;26030;51.164;17.100;2023-11-21T14:40:43;23.30;58.20
40323;DHT22;26030;51.164;17.100;2023-11-21T14:45:48;23.60;58.10
40323;DHT22;26030;51.164;17.100;2023-11-21T14:50:53;23.70;57.30
40323;DHT22;26030;51.164;17.100;2023-11-21T14:56:06;23.80;57.70
40323;DHT22;26030;51.164;17.100;2023-11-21T15:01:11;23.70;56.60
40323;DHT22;26030;51.164;17.100;2023-11-21T15:06:16;23.70;56.60
40323;DHT22;26030;51.164;17.100;2023-11-21T15:11:30;23.60;56.60
40323;DHT22;26030;51.164;17.100;2023-11-21T15:16:35;23.50;57.20
40323;DHT22;26030;51.164;17.100;2023-11-21T15:21:46;23.50;57.00
40323;DHT22;26030;51.164;17.100;2023-11-21T15:26:51;23.40;57.10
40323;DHT22;26030;51.164;17.100;2023-11-21T15:31:56;23.50;56.90
40323;DHT22;26030;51.164;17.100;2023-11-21T15:37:01;23.50;56.60
40323;DHT22;26030;51.164;17.100;2023-11-21T15:42:06;23.40;56.70
40323;DHT22;26030;51.164;17.100;2023-11-21T15:47:11;23.40;56.80
40323;DHT22;26030;51.164;17.100;2023-11-21T15:52:16;23.50;57.20
40323;DHT22;26030;51.164;17.100;2023-11-21T15:57:22;23.40;56.90
40323;DHT22;26030;51.164;17.100;2023-11-21T16:02:26;23.30;57.30
40323;DHT22;26030;51.164;17.100;2023-11-21T16:07:31;23.30;57.20
40323;DHT22;26030;51.164;17.100;2023-11-21T16:12:39;23.30;57.30
40323;DHT22;26030;51.164;17.100;2023-11-21T16:17:44;23.30;57.10
40323;DHT22;26030;51.164;17.100;2023-11-21T16:22:50;23.20;57.20
40323;DHT22;26030;51.164;17.100;2023-11-21T16:27:55;23.10;57.80
40323;DHT22;26030;51.164;17.100;2023-11-21T16:33:02;23.30;57.60
40323;DHT22;26030;51.164;17.100;2023-11-21T16:38:09;23.60;57.00
40323;DHT22;26030;51.164;17.100;2023-11-21T16:43:14;23.70;56.60
40323;DHT22;26030;51.164;17.100;2023-11-21T16:48:19;23.80;56.80
40323;DHT22;26030;51.164;17.100;2023-11-21T16:53:24;23.90;56.40
40323;DHT22;26030;51.164;17.100;2023-11-21T16:58:28;23.90;56.70
40323;DHT22;26030;51.164;17.100;2023-11-21T17:03:34;23.80;57.10
40323;DHT22;26030;51.164;17.100;2023-11-21T17:08:39;23.70;56.70
40323;DHT22;26030;51.164;17.100;2023-11-21T17:13:44;23.70;56.90
40323;DHT22;26030;51.164;17.100;2023-11-21T17:18:50;23.70;56.30
40323;DHT22;26030;51.164;17.100;2023-11-21T17:23:56;23.70;56.40
40323;DHT22;26030;51.164;17.100;2023-11-21T17:29:01;23.50;56.70
40323;DHT22;26030;51.164;17.100;2023-11-21T17:34:07;23.30;56.90
40323;DHT22;26030;51.164;17.100;2023-11-21T17:39:11;23.30;57.00
40323;DHT22;26030;51.164;17.100;2023-11-21T17:44:17;23.30;56.70
40323;DHT22;26030;51.164;17.100;2023-11-21T17:49:21;23.40;56.30
40323;DHT22;26030;51.164;17.100;2023-11-21T17:54:25;23.40;55.70
40323;DHT22;26030;51.164;17.100;2023-11-21T17:59:31;23.30;56.30
40323;DHT22;26030;51.164;17.100;2023-11-21T18:04:36;23.20;56.70
40323;DHT22;26030;51.164;17.100;2023-11-21T18:09:40;23.00;56.30
40323;DHT22;26030;51.164;17.100;2023-11-21T18:14:46;22.90;56.70
40323;DHT22;26030;51.164;17.100;2023-11-21T18:19:57;22.90;56.60
40323;DHT22;26030;51.164;17.100;2023-11-21T18:25:01;22.90;56.60
40323;DHT22;26030;51.164;17.100;2023-11-21T18:30:07;23.10;56.60
40323;DHT22;26030;51.164;17.100;2023-11-21T18:35:12;23.40;55.90
40323;DHT22;26030;51.164;17.100;2023-11-21T18:40:17;23.50;55.00
40323;DHT22;26030;51.164;17.100;2023-11-21T18:45:24;23.70;54.60
40323;DHT22;26030;51.164;17.100;2023-11-21T18:50:33;23.70;54.60
40323;DHT22;26030;51.164;17.100;2023-11-21T18:55:43;23.70;54.60
40323;DHT22;26030;51.164;17.100;2023-11-21T19:00:51;23.50;54.70
40323;DHT22;26030;51.164;17.100;2023-11-21T19:06:00;23.40;54.90
40323;DHT22;26030;51.164;17.100;2023-11-21T19:11:10;23.30;55.00
40323;DHT22;26030;51.164;17.100;2023-11-21T19:16:22;23.30;55.30
40323;DHT22;26030;51.164;17.100;2023-11-21T19:21:28;23.30;54.90
40323;DHT22;26030;51.164;17.100;2023-11-21T19:26:37;23.20;55.10
40323;DHT22;26030;51.164;17.100;2023-11-21T19:31:47;23.10;55.20
40323;DHT22;26030;51.164;17.100;2023-11-21T19:36:53;23.00;55.20
40323;DHT22;26030;51.164;17.100;2023-11-21T19:42:00;23.00;54.90
40323;DHT22;26030;51.164;17.100;2023-11-21T19:47:05;23.00;55.00
40323;DHT22;26030;51.164;17.100;2023-11-21T19:52:11;23.00;55.40
40323;DHT22;26030;51.164;17.100;2023-11-21T19:57:16;23.00;54.90
40323;DHT22;26030;51.164;17.100;2023-11-21T20:02:21;23.00;56.50
40323;DHT22;26030;51.164;17.100;2023-11-21T20:07:31;23.20;56.40
40323;DHT22;26030;51.164;17.100;2023-11-21T20:12:39;23.20;56.10
40323;DHT22;26030;51.164;17.100;2023-11-21T20:17:48;23.30;57.20
40323;DHT22;26030;51.164;17.100;2023-11-21T20:22:53;23.50;56.10
40323;DHT22;26030;51.164;17.100;2023-11-21T20:28:00;23.60;55.50
40323;DHT22;26030;51.164;17.100;2023-11-21T20:33:05;23.60;55.40
40323;DHT22;26030;51.164;17.100;2023-11-21T20:38:13;23.60;55.20
40323;DHT22;26030;51.164;17.100;2023-11-21T20:43:18;23.50;55.50
40323;DHT22;26030;51.164;17.100;2023-11-21T20:48:24;23.30;56.10
40323;DHT22;26030;51.164;17.100;2023-11-21T20:53:33;23.20;56.50
40323;DHT22;26030;51.164;17.100;2023-11-21T20:58:40;23.10;57.10
40323;DHT22;26030;51.164;17.100;2023-11-21T21:03:47;23.10;57.30
40323;DHT22;26030;51.164;17.100;2023-11-21T21:08:53;23.00;57.50
40323;DHT22;26030;51.164;17.100;2023-11-21T21:13:59;23.00;56.80
40323;DHT22;26030;51.164;17.100;2023-11-21T21:19:03;23.00;56.80
40323;DHT22;26030;51.164;17.100;2023-11-21T21:24:08;23.30;56.10
40323;DHT22;26030;51.164;17.100;2023-11-21T21:29:13;23.50;55.50
40323;DHT22;26030;51.164;17.100;2023-11-21T21:34:18;23.70;55.10
40323;DHT22;26030;51.164;17.100;2023-11-21T21:39:23;23.90;54.20
40323;DHT22;26030;51.164;17.100;2023-11-21T21:44:27;23.90;54.50
40323;DHT22;26030;51.164;17.100;2023-11-21T21:49:31;24.10;54.40
40323;DHT22;26030;51.164;17.100;2023-11-21T21:54:35;23.90;54.50
40323;DHT22;26030;51.164;17.100;2023-11-21T21:59:41;23.80;54.60
40323;DHT22;26030;51.164;17.100;2023-11-21T22:04:46;23.90;55.50
40323;DHT22;26030;51.164;17.100;2023-11-21T22:09:51;23.80;58.80
40323;DHT22;26030;51.164;17.100;2023-11-21T22:14:55;23.70;58.80
40323;DHT22;26030;51.164;17.100;2023-11-21T22:19:59;23.60;59.10
40323;DHT22;26030;51.164;17.100;2023-11-21T22:25:04;23.50;59.60
40323;DHT22;26030;51.164;17.100;2023-11-21T22:30:10;23.30;59.80
40323;DHT22;26030;51.164;17.100;2023-11-21T22:35:15;23.30;59.80
40323;DHT22;26030;51.164;17.100;2023-11-21T22:40:19;23.20;60.00
40323;DHT22;26030;51.164;17.100;2023-11-21T22:45:23;23.20;59.90
40323;DHT22;26030;51.164;17.100;2023-11-21T22:50:27;23.10;59.80
40323;DHT22;26030;51.164;17.100;2023-11-21T22:55:32;23.00;59.50
40323;DHT22;26030;51.164;17.100;2023-11-21T23:00:36;23.20;59.10
40323;DHT22;26030;51.164;17.100;2023-11-21T23:05:40;23.40;58.70
40323;DHT22;26030;51.164;17.100;2023-11-21T23:10:45;23.50;58.30
40323;DHT22;26030;51.164;17.100;2023-11-21T23:15:50;23.60;58.00
40323;DHT22;26030;51.164;17.100;2023-11-21T23:20:56;23.60;57.80
40323;DHT22;26030;51.164;17.100;2023-11-21T23:26:01;23.70;57.50
40323;DHT22;26030;51.164;17.100;2023-11-21T23:31:05;23.60;57.30
40323;DHT22;26030;51.164;17.100;2023-11-21T23:36:09;23.70;57.20
40323;DHT22;26030;51.164;17.100;2023-11-21T23:41:14;23.60;59.10
40323;DHT22;26030;51.164;17.100;2023-11-21T23:46:20;23.60;58.10
40323;DHT22;26030;51.164;17.100;2023-11-21T23:51:24;23.70;57.50
40323;DHT22;26030;51.164;17.100;2023-11-21T23:56:29;23.90;56.90
